Terminal Aerodrome Forecast
Issued by NWS Memphis, TN

Home | Current Version | Previous Version | Text Only | Print | Product List | Glossary On
Versions: 1 2 3 4 5 6 7 8 9 10 11 12 13 14 15 16
000
FTUS44 KMEG 172322
TAFJBR
TAF
KJBR 172322Z 1800/1824 18004KT P6SM OVC012
     FM180200 VRB03KT 6SM BR OVC008
     FM180600 VRB03KT 4SM BR OVC004
     FM181500 23006KT P6SM OVC008
     FM181800 24007KT P6SM BKN015=

USA.gov is the U.S. government's official web portal to all federal, state and local government web resources and services.